La Guardia Airport
KLGA : now visible

Airfield :











YOU CAN JOIN US ON...

 
LOGIN :

Register | Disclaimer

   EN    FR    IT 

 









Legend :    VFR   Marginal VFR   IFR   Intensive IFR   Very Intensive IFR
Visi :
Ceiling :
>= 8 km
>= 3000ft
5 to 8 km
1000 to 3000 ft
1500m to 5 km
500 to 1000 ft
800 to 1500m
200 to 500 ft
< 800m
< 200 ft
Symbols :   Thunderstorms  Fog  Heavy snow  Heavy precipitations  Wind > 20 kt






- Airport Elevation : 21 ft
- IATA code : LGA


KLGA - La Guardia

CURRENT METAR :
  • 080651Z 05005KT 10SM CLR M01/M09 A3052 RMK AO2 SLP334 T10061094

EXPIRED METARs :
  • 080551Z 34004KT 10SM CLR M01/M09 A3050 RMK AO2 SLP329 T10061094 10022 21006 50005
  • 080451Z 35007KT 10SM FEW250 00/M09 A3051 RMK AO2 SLP330 T00001094 400390000

TAF KLGA
Valid from the 08 at 06:00 until the 09 at 12:00 UTC


080530Z 0806/0912 35007KT P6SM FEW250
FM080800 VRB04KT P6SM FEW250
FM081500 16005KT P6SM SCT250
FM081800 19010G18KT P6SM FEW040 BKN250
FM090500 20008KT 5SM BR BKN050
FM091100 17004KT 5SM BR VCSH OVC019



MET'MAP, your aeronautical weather chart ! - Copyright ORBIFLY December 2007 - Disclaimer

ORBIFLY MET'MAP TEAM :

Programming & Development : Alexandra Zaïnal
Concept & original design : Baudouin d'Aumeries
Assistance for programming : Marc-Olivier Méhu
Technical & hardware support : Manuel Goepfert

Contact : metmap@orbifly.com




SOURCES & CREDITS :

   NOAA       Earth
Advisory